Driggs, Idaho
Current Conditions -  °F | °C
As of 11:56 AM on Monday 20 Oct 2014 (Local Time) from KDIJ Reporting Station
Clear Clear  
Wind Chill: 68°   Ceiling: Unl
Heat Index: 68°   Visibility: 10mi
Dew Point: 33°   Wind: 12mph
Humidity: 27%   Direction: 180°S
Pressure: 30.11"   Gusts: NA
Location:  43.72°N, 111.11°W
Report Text: KDIJ 201756Z AUTO 18010KT 10SM CLR 20/01 A3011 RMK AO2 58006 T02000005 10200 20000 SLP137
Loading
Personal Weather Stations






























Interactive Weather Map
Tropical Storm Tracking
New forecast layout! Learn more

10-Day Weather Forecast

Advertisements
Track Severe Weather on mobile